Time;durP1;ratioP1;P1;durP2;ratioP2;P2;SDS_P1;SDS_P2;PMS_P1;PMS_P2;Temp;Humidity;BMP_temperature;BMP_pressure;BME280_temperature;BME280_humidity;BME280_pressure;Samples;Min_cycle;Max_cycle;Signal;HPM_P1;HPM_P2
2022/01/08 00:00:14;;;;;;;6.07;5.23;;;;;;;;;;5049155;28;20223;-73
2022/01/08 00:02:40;;;;;;;7.70;5.00;;;;;;;;;;5033813;28;20727;-73
2022/01/08 00:05:06;;;;;;;7.10;5.87;;;;;;;;;;5050569;28;20223;-73
2022/01/08 00:07:31;;;;;;;7.97;5.67;;;;;;;;;;5052399;28;20766;-73
2022/01/08 00:09:59;;;;;;;9.13;7.57;;;;;;;;;;5001186;28;20326;-73
2022/01/08 00:12:25;;;;;;;10.07;6.40;;;;;;;;;;5033125;28;20220;-73
2022/01/08 00:14:50;;;;;;;6.67;5.77;;;;;;;;;;5050709;28;20225;-73
2022/01/08 00:17:19;;;;;;;7.23;6.40;;;;;;;;;;5050207;28;20274;-72
2022/01/08 00:19:44;;;;;;;9.10;7.23;;;;;;;;;;5050680;28;20219;-73
2022/01/08 00:22:16;;;;;;;9.67;6.20;;;;;;;;;;5049591;28;20223;-73
2022/01/08 00:24:52;;;;;;;6.17;5.57;;;;;;;;;;5034425;28;20242;-73
2022/01/08 00:27:23;;;;;;;7.77;5.73;;;;;;;;;;5034038;28;20223;-72
2022/01/08 00:29:51;;;;;;;6.47;5.47;;;;;;;;;;5017687;28;20231;-73
2022/01/08 00:32:16;;;;;;;6.47;5.87;;;;;;;;;;5033901;28;20231;-73
2022/01/08 00:34:47;;;;;;;7.77;5.50;;;;;;;;;;5050162;28;20600;-74
2022/01/08 00:37:12;;;;;;;7.00;5.53;;;;;;;;;;5013892;28;20220;-73
2022/01/08 00:39:39;;;;;;;6.00;5.13;;;;;;;;;;5030467;28;20233;-74
2022/01/08 00:42:04;;;;;;;7.30;5.60;;;;;;;;;;5030805;28;20239;-73
2022/01/08 00:44:32;;;;;;;6.80;5.13;;;;;;;;;;5030098;28;20228;-73
2022/01/08 00:47:00;;;;;;;8.33;5.47;;;;;;;;;;5017008;28;20224;-73
2022/01/08 00:49:25;;;;;;;6.20;5.60;;;;;;;;;;5049597;28;20219;-73
2022/01/08 00:51:53;;;;;;;8.53;5.87;;;;;;;;;;5015896;28;20322;-73
2022/01/08 00:54:22;;;;;;;6.60;5.87;;;;;;;;;;5017302;28;20605;-74
2022/01/08 00:56:48;;;;;;;7.17;5.87;;;;;;;;;;5034128;28;20701;-74
2022/01/08 00:59:19;;;;;;;7.93;6.03;;;;;;;;;;5033219;28;20223;-74
2022/01/08 01:01:52;;;;;;;7.27;5.57;;;;;;;;;;5049504;28;20235;-74
2022/01/08 01:04:17;;;;;;;6.60;5.50;;;;;;;;;;5050410;28;20306;-73
2022/01/08 01:06:43;;;;;;;6.47;5.87;;;;;;;;;;5033503;28;20768;-73
2022/01/08 01:09:09;;;;;;;9.13;6.20;;;;;;;;;;5049329;28;20227;-74
2022/01/08 01:11:36;;;;;;;6.40;5.53;;;;;;;;;;5049860;28;20253;-74
2022/01/08 01:14:04;;;;;;;6.70;5.80;;;;;;;;;;5049534;28;20306;-72
2022/01/08 01:16:30;;;;;;;7.27;5.57;;;;;;;;;;5049455;28;20341;-73
2022/01/08 01:18:57;;;;;;;6.73;6.03;;;;;;;;;;5017181;28;20223;-72
2022/01/08 01:21:22;;;;;;;6.20;5.20;;;;;;;;;;5033009;28;20235;-73
2022/01/08 01:23:51;;;;;;;6.87;5.70;;;;;;;;;;5016797;28;20326;-73
2022/01/08 01:26:23;;;;;;;6.60;5.23;;;;;;;;;;5049310;28;20228;-72
2022/01/08 01:43:04;;;;;;;7.13;6.27;;;;;;;;;;5022331;28;20444;-73
2022/01/08 01:47:40;;;;;;;7.10;6.27;;;;;;;;;;5025083;28;20310;-73
2022/01/08 01:50:09;;;;;;;7.60;6.10;;;;;;;;;;5035601;28;20314;-73
2022/01/08 01:52:37;;;;;;;6.90;6.20;;;;;;;;;;5033301;28;20682;-73
2022/01/08 01:55:05;;;;;;;8.27;6.53;;;;;;;;;;5033036;28;20220;-74
2022/01/08 01:57:31;;;;;;;7.70;6.37;;;;;;;;;;5000967;28;20732;-73
2022/01/08 02:00:01;;;;;;;7.77;6.93;;;;;;;;;;5017010;28;20216;-73
2022/01/08 02:02:26;;;;;;;8.67;6.90;;;;;;;;;;5016274;28;20681;-73
2022/01/08 02:04:56;;;;;;;8.07;7.27;;;;;;;;;;5032893;28;20239;-73
2022/01/08 02:07:28;;;;;;;8.87;6.67;;;;;;;;;;5033891;28;20220;-72
2022/01/08 02:09:58;;;;;;;8.63;7.07;;;;;;;;;;5017943;28;20228;-73
2022/01/08 02:12:33;;;;;;;7.67;6.93;;;;;;;;;;5015787;28;20533;-73
2022/01/08 02:14:58;;;;;;;11.87;7.40;;;;;;;;;;5001184;28;20622;-73
2022/01/08 02:17:28;;;;;;;8.77;7.27;;;;;;;;;;5016003;28;20219;-73
2022/01/08 02:19:58;;;;;;;9.73;7.83;;;;;;;;;;5017078;28;20220;-72
2022/01/08 02:22:27;;;;;;;9.60;8.00;;;;;;;;;;5014792;28;20716;-74
2022/01/08 02:24:52;;;;;;;8.07;7.27;;;;;;;;;;5000447;28;20220;-72
2022/01/08 02:27:18;;;;;;;10.50;8.30;;;;;;;;;;5015617;28;20310;-74
2022/01/08 02:29:44;;;;;;;8.73;7.77;;;;;;;;;;4980779;28;20310;-74
2022/01/08 02:32:15;;;;;;;8.43;7.60;;;;;;;;;;4996295;28;20367;-74
2022/01/08 02:34:41;;;;;;;9.40;7.80;;;;;;;;;;5024133;28;20216;-74
2022/01/08 02:37:09;;;;;;;9.10;7.67;;;;;;;;;;5016160;28;20303;-74
2022/01/08 02:39:41;;;;;;;9.27;7.37;;;;;;;;;;5023811;28;20224;-73
2022/01/08 02:42:11;;;;;;;9.80;7.23;;;;;;;;;;5015562;28;20240;-73
2022/01/08 02:44:39;;;;;;;11.83;7.87;;;;;;;;;;5016567;28;20220;-72
2022/01/08 02:47:04;;;;;;;10.07;8.00;;;;;;;;;;4999923;28;20261;-74
2022/01/08 02:49:34;;;;;;;9.13;8.03;;;;;;;;;;5016165;28;20211;-74
2022/01/08 02:52:02;;;;;;;10.30;8.00;;;;;;;;;;5015522;28;20240;-74
2022/01/08 02:54:27;;;;;;;11.10;8.33;;;;;;;;;;5015365;28;20266;-73
2022/01/08 02:56:53;;;;;;;9.80;8.23;;;;;;;;;;5015541;28;20228;-73
2022/01/08 02:59:19;;;;;;;9.60;8.27;;;;;;;;;;5015485;28;20220;-74
2022/01/08 03:01:46;;;;;;;12.37;9.17;;;;;;;;;;5015705;28;20240;-74
2022/01/08 03:04:14;;;;;;;11.07;9.27;;;;;;;;;;5015795;28;20220;-74
2022/01/08 03:06:40;;;;;;;12.47;9.27;;;;;;;;;;5015805;28;20592;-74
2022/01/08 03:09:10;;;;;;;12.07;9.47;;;;;;;;;;5014923;28;20353;-73
2022/01/08 03:11:42;;;;;;;10.43;8.57;;;;;;;;;;5030436;28;20244;-72
2022/01/08 03:14:07;;;;;;;10.47;8.67;;;;;;;;;;5014395;28;20223;-74
2022/01/08 03:16:33;;;;;;;11.47;9.83;;;;;;;;;;5015056;28;20242;-74
2022/01/08 03:19:10;;;;;;;11.03;9.50;;;;;;;;;;4998871;28;20643;-73
2022/01/08 03:21:42;;;;;;;10.93;9.77;;;;;;;;;;5026027;28;20283;-73
2022/01/08 03:24:16;;;;;;;10.33;9.23;;;;;;;;;;5011862;28;20232;-73
2022/01/08 03:26:44;;;;;;;12.53;9.73;;;;;;;;;;5025800;28;20713;-74
2022/01/08 03:29:12;;;;;;;12.23;9.43;;;;;;;;;;5030708;28;20686;-73
2022/01/08 03:31:45;;;;;;;13.47;10.33;;;;;;;;;;5035163;28;20219;-74
2022/01/08 03:34:10;;;;;;;13.73;9.90;;;;;;;;;;5035361;28;20360;-72
2022/01/08 03:36:36;;;;;;;12.50;10.60;;;;;;;;;;5035070;28;20574;-74
2022/01/08 03:39:03;;;;;;;11.83;10.30;;;;;;;;;;5034706;28;20219;-73
2022/01/08 03:41:29;;;;;;;13.10;10.40;;;;;;;;;;5050702;28;20220;-73
2022/01/08 03:43:54;;;;;;;13.20;10.60;;;;;;;;;;5002131;28;20211;-73
2022/01/08 03:46:27;;;;;;;13.13;10.63;;;;;;;;;;5034653;28;20280;-73
2022/01/08 03:49:13;;;;;;;12.57;10.77;;;;;;;;;;5020170;28;20226;-74
2022/01/08 03:51:49;;;;;;;12.07;10.07;;;;;;;;;;5050678;28;20223;-72
2022/01/08 03:54:15;;;;;;;12.63;10.57;;;;;;;;;;5051326;28;20238;-73
2022/01/08 03:56:40;;;;;;;14.10;10.60;;;;;;;;;;5050909;28;20692;-73
2022/01/08 03:59:06;;;;;;;11.33;10.07;;;;;;;;;;5017451;28;20327;-74
2022/01/08 04:01:36;;;;;;;11.27;10.23;;;;;;;;;;5033994;28;20653;-74
2022/01/08 04:04:04;;;;;;;12.57;9.83;;;;;;;;;;5050628;28;20296;-74
2022/01/08 04:06:32;;;;;;;12.20;10.20;;;;;;;;;;5034562;28;20219;-74
2022/01/08 04:09:00;;;;;;;11.70;10.47;;;;;;;;;;5017626;28;20744;-74
2022/01/08 04:11:30;;;;;;;11.50;9.87;;;;;;;;;;5017192;28;20219;-74
2022/01/08 04:13:56;;;;;;;12.43;9.93;;;;;;;;;;5018529;28;20243;-73
2022/01/08 04:16:29;;;;;;;10.70;9.33;;;;;;;;;;5017394;28;20292;-73
2022/01/08 04:18:57;;;;;;;10.60;9.07;;;;;;;;;;5019488;28;20262;-73
2022/01/08 04:24:00;;;;;;;10.57;8.90;;;;;;;;;;5034270;28;20227;-73
2022/01/08 04:26:28;;;;;;;10.53;9.07;;;;;;;;;;5033341;28;20284;-74
2022/01/08 04:28:56;;;;;;;10.30;8.40;;;;;;;;;;5036636;28;20214;-73
2022/01/08 04:31:26;;;;;;;10.43;8.87;;;;;;;;;;5049665;28;20609;-73
2022/01/08 04:33:54;;;;;;;10.27;8.33;;;;;;;;;;5033972;28;20227;-73
2022/01/08 04:36:20;;;;;;;12.67;8.87;;;;;;;;;;5030250;28;20215;-75
2022/01/08 04:38:45;;;;;;;12.60;8.90;;;;;;;;;;5030523;28;20290;-74
2022/01/08 04:41:11;;;;;;;10.43;8.77;;;;;;;;;;5013161;28;20225;-73
2022/01/08 04:43:43;;;;;;;10.67;9.00;;;;;;;;;;5014011;28;20639;-73
2022/01/08 04:46:11;;;;;;;11.23;9.37;;;;;;;;;;5035578;28;20668;-73
2022/01/08 04:48:39;;;;;;;10.80;9.07;;;;;;;;;;5033552;28;20223;-73
2022/01/08 04:51:05;;;;;;;10.73;8.50;;;;;;;;;;5013836;28;20220;-73
2022/01/08 04:53:30;;;;;;;10.90;9.10;;;;;;;;;;5049724;28;20219;-73
2022/01/08 04:55:58;;;;;;;10.77;8.97;;;;;;;;;;5033599;28;20219;-73
2022/01/08 04:58:24;;;;;;;10.87;9.73;;;;;;;;;;5033577;28;20719;-73
2022/01/08 05:00:52;;;;;;;16.10;9.20;;;;;;;;;;5049845;28;20318;-73
2022/01/08 05:03:17;;;;;;;11.23;8.77;;;;;;;;;;5012553;28;20223;-73
2022/01/08 05:05:43;;;;;;;10.63;9.53;;;;;;;;;;5016332;28;20229;-73
2022/01/08 05:08:12;;;;;;;12.73;9.60;;;;;;;;;;5033011;28;20223;-73
2022/01/08 05:10:37;;;;;;;12.27;9.47;;;;;;;;;;5050726;28;20222;-73
2022/01/08 05:13:06;;;;;;;12.50;9.57;;;;;;;;;;5031977;28;20289;-74
2022/01/08 05:15:32;;;;;;;10.80;9.20;;;;;;;;;;5049805;28;20244;-74
2022/01/08 05:18:01;;;;;;;10.50;9.40;;;;;;;;;;5033123;28;20223;-74
2022/01/08 05:20:31;;;;;;;13.47;9.70;;;;;;;;;;4999589;28;20353;-73
2022/01/08 05:23:02;;;;;;;12.63;9.97;;;;;;;;;;5033761;28;20298;-74
2022/01/08 05:25:30;;;;;;;14.50;10.07;;;;;;;;;;4997801;28;20222;-73
2022/01/08 05:27:56;;;;;;;12.23;9.73;;;;;;;;;;4997023;28;20216;-74
2022/01/08 05:30:26;;;;;;;12.87;10.13;;;;;;;;;;4997017;28;20682;-74
2022/01/08 05:32:55;;;;;;;13.87;10.47;;;;;;;;;;4996911;28;20218;-72
2022/01/08 05:35:23;;;;;;;14.77;11.27;;;;;;;;;;4997544;28;20215;-73
2022/01/08 05:37:48;;;;;;;14.53;11.00;;;;;;;;;;5033534;28;20224;-73
2022/01/08 05:40:19;;;;;;;12.60;10.40;;;;;;;;;;5015442;28;20353;-73
2022/01/08 05:42:50;;;;;;;11.93;10.00;;;;;;;;;;5031860;28;20761;-73
2022/01/08 05:45:15;;;;;;;14.03;10.47;;;;;;;;;;5013330;28;20258;-74
2022/01/08 05:47:43;;;;;;;14.33;11.57;;;;;;;;;;4998323;28;20299;-73
2022/01/08 05:50:09;;;;;;;13.80;10.73;;;;;;;;;;5029403;28;20312;-73
2022/01/08 05:52:35;;;;;;;15.57;11.00;;;;;;;;;;5029020;28;20223;-73
2022/01/08 05:55:10;;;;;;;17.23;11.83;;;;;;;;;;5014232;28;20303;-73
2022/01/08 05:57:38;;;;;;;12.90;11.50;;;;;;;;;;4997341;28;20277;-73
2022/01/08 06:00:15;;;;;;;14.40;11.33;;;;;;;;;;5028956;28;20220;-74
2022/01/08 06:02:41;;;;;;;12.03;10.43;;;;;;;;;;4997139;28;20220;-73
2022/01/08 06:05:09;;;;;;;13.83;11.30;;;;;;;;;;5029082;28;20595;-73
2022/01/08 06:07:42;;;;;;;12.97;10.47;;;;;;;;;;4997050;28;20220;-73
2022/01/08 06:10:10;;;;;;;14.53;11.63;;;;;;;;;;4995841;28;20780;-74
2022/01/08 06:12:36;;;;;;;14.17;10.40;;;;;;;;;;4995390;28;20270;-73
2022/01/08 06:15:01;;;;;;;15.33;11.63;;;;;;;;;;4996855;28;20258;-73
2022/01/08 06:17:27;;;;;;;13.60;11.53;;;;;;;;;;5012450;28;20224;-73
2022/01/08 06:19:54;;;;;;;13.80;11.53;;;;;;;;;;5047652;28;20215;-74
2022/01/08 06:22:22;;;;;;;14.53;12.10;;;;;;;;;;5031282;28;20671;-73
2022/01/08 06:24:48;;;;;;;16.73;11.10;;;;;;;;;;5048962;28;20219;-72
2022/01/08 06:27:13;;;;;;;14.80;10.90;;;;;;;;;;5032221;28;20327;-73
2022/01/08 06:29:39;;;;;;;13.33;11.73;;;;;;;;;;5032450;28;20310;-74
2022/01/08 06:32:07;;;;;;;18.50;12.93;;;;;;;;;;4999559;28;20235;-73
2022/01/08 06:34:32;;;;;;;15.20;11.90;;;;;;;;;;5050862;28;20223;-74
2022/01/08 06:37:02;;;;;;;15.00;12.90;;;;;;;;;;5036652;28;20246;-74
2022/01/08 06:39:31;;;;;;;14.77;12.27;;;;;;;;;;5053432;28;20230;-74
2022/01/08 06:42:04;;;;;;;14.90;11.97;;;;;;;;;;5051872;28;20728;-74
2022/01/08 06:44:29;;;;;;;16.77;11.80;;;;;;;;;;5035660;28;20232;-74
2022/01/08 06:46:55;;;;;;;15.97;12.63;;;;;;;;;;5036148;28;20231;-74
2022/01/08 06:49:23;;;;;;;16.00;12.37;;;;;;;;;;5035203;28;20223;-73
2022/01/08 06:51:51;;;;;;;15.33;12.33;;;;;;;;;;5052100;28;20231;-74
2022/01/08 06:54:19;;;;;;;18.50;13.20;;;;;;;;;;5035624;28;20306;-74
2022/01/08 06:56:47;;;;;;;17.53;13.40;;;;;;;;;;5020283;28;20211;-74
2022/01/08 06:59:15;;;;;;;19.73;13.77;;;;;;;;;;5018610;28;20230;-73
2022/01/08 07:01:43;;;;;;;18.23;13.30;;;;;;;;;;5034875;28;20681;-74
2022/01/08 07:04:11;;;;;;;18.93;13.53;;;;;;;;;;5052803;28;20223;-73
2022/01/08 07:06:41;;;;;;;17.17;13.87;;;;;;;;;;5035948;28;20216;-73
2022/01/08 07:09:09;;;;;;;17.90;13.47;;;;;;;;;;5051734;28;20734;-74
2022/01/08 07:11:39;;;;;;;19.63;13.73;;;;;;;;;;5035330;28;20251;-74
2022/01/08 07:14:07;;;;;;;21.83;15.03;;;;;;;;;;5051680;28;20221;-74
2022/01/08 07:16:34;;;;;;;18.60;14.63;;;;;;;;;;5051564;28;20314;-74
2022/01/08 07:19:02;;;;;;;22.13;15.03;;;;;;;;;;5035263;28;20716;-74
2022/01/08 07:21:28;;;;;;;18.63;14.17;;;;;;;;;;5050511;28;20651;-74
2022/01/08 07:23:54;;;;;;;19.60;15.07;;;;;;;;;;5053240;28;20239;-74
2022/01/08 07:26:22;;;;;;;20.17;13.50;;;;;;;;;;5019169;28;20223;-74
2022/01/08 07:28:47;;;;;;;20.50;14.80;;;;;;;;;;5051956;28;20222;-74
2022/01/08 07:31:15;;;;;;;19.53;14.83;;;;;;;;;;5034601;28;20219;-74
2022/01/08 07:33:43;;;;;;;17.80;14.33;;;;;;;;;;5018832;28;20215;-74
2022/01/08 07:36:09;;;;;;;18.47;13.87;;;;;;;;;;5034802;28;20285;-74
2022/01/08 07:38:37;;;;;;;19.30;14.53;;;;;;;;;;5035040;28;20224;-74
2022/01/08 07:41:02;;;;;;;23.57;15.40;;;;;;;;;;5034630;28;20285;-74
2022/01/08 07:43:30;;;;;;;26.07;16.83;;;;;;;;;;5051450;28;20219;-74
2022/01/08 07:45:56;;;;;;;19.73;15.60;;;;;;;;;;5035175;28;20219;-74
2022/01/08 07:48:25;;;;;;;20.60;15.10;;;;;;;;;;5018623;28;20219;-74
2022/01/08 07:50:56;;;;;;;18.80;14.00;;;;;;;;;;5034087;28;20223;-73
2022/01/08 07:53:24;;;;;;;20.50;14.83;;;;;;;;;;5050703;28;22405;-74
2022/01/08 07:55:52;;;;;;;21.13;14.10;;;;;;;;;;5002332;28;20219;-74
2022/01/08 07:58:20;;;;;;;18.17;13.93;;;;;;;;;;5033976;28;20231;-74
2022/01/08 08:00:53;;;;;;;17.87;13.90;;;;;;;;;;5050895;28;20234;-74
2022/01/08 08:03:19;;;;;;;18.97;14.13;;;;;;;;;;5050187;28;20224;-73
2022/01/08 08:05:45;;;;;;;17.80;13.47;;;;;;;;;;5034707;28;20234;-74
2022/01/08 08:08:22;;;;;;;14.30;12.13;;;;;;;;;;5018519;28;20732;-73
2022/01/08 08:10:50;;;;;;;19.33;13.40;;;;;;;;;;5034418;28;20219;-72
2022/01/08 08:13:17;;;;;;;16.07;12.87;;;;;;;;;;5034138;28;20250;-73
2022/01/08 08:15:44;;;;;;;16.77;12.27;;;;;;;;;;5034318;28;20211;-73
2022/01/08 08:18:13;;;;;;;18.23;12.43;;;;;;;;;;5051147;28;20302;-72
2022/01/08 08:20:46;;;;;;;17.20;13.30;;;;;;;;;;5034002;28;20232;-73
2022/01/08 08:23:11;;;;;;;17.17;12.87;;;;;;;;;;5050430;28;20234;-73
2022/01/08 08:25:39;;;;;;;17.90;12.60;;;;;;;;;;5050620;28;20220;-73
2022/01/08 08:28:07;;;;;;;18.27;13.10;;;;;;;;;;5034569;28;20231;-73
2022/01/08 08:30:35;;;;;;;15.07;11.93;;;;;;;;;;5039877;28;20216;-74
2022/01/08 08:33:05;;;;;;;18.90;12.97;;;;;;;;;;5027713;28;20706;-73
2022/01/08 08:35:31;;;;;;;15.40;12.80;;;;;;;;;;5011436;28;20273;-74
2022/01/08 08:37:59;;;;;;;19.00;13.57;;;;;;;;;;5052214;28;20219;-73
2022/01/08 08:40:25;;;;;;;16.03;11.67;;;;;;;;;;5029818;28;20212;-73
2022/01/08 08:42:55;;;;;;;16.53;12.67;;;;;;;;;;5013985;28;20255;-73
2022/01/08 08:45:23;;;;;;;16.70;12.90;;;;;;;;;;5000644;28;20223;-73
2022/01/08 08:47:56;;;;;;;17.47;12.20;;;;;;;;;;4981180;28;20597;-73
2022/01/08 08:50:26;;;;;;;14.70;12.33;;;;;;;;;;5038853;28;20708;-73
2022/01/08 08:52:54;;;;;;;17.17;11.77;;;;;;;;;;5049077;28;20243;-73
2022/01/08 08:55:19;;;;;;;16.23;12.90;;;;;;;;;;5044616;28;20290;-73
2022/01/08 08:57:47;;;;;;;15.67;13.07;;;;;;;;;;5030344;28;20226;-73
2022/01/08 09:00:13;;;;;;;16.30;12.33;;;;;;;;;;5033342;28;20225;-73
2022/01/08 09:02:41;;;;;;;14.37;12.37;;;;;;;;;;5033306;28;20223;-73
2022/01/08 09:05:09;;;;;;;14.33;12.13;;;;;;;;;;5033321;28;20709;-73
2022/01/08 09:07:35;;;;;;;14.20;11.37;;;;;;;;;;5033556;28;20324;-72
2022/01/08 09:10:04;;;;;;;16.13;12.37;;;;;;;;;;5017235;28;20692;-73
2022/01/08 09:12:30;;;;;;;16.67;12.57;;;;;;;;;;4995888;28;20216;-73
2022/01/08 09:14:55;;;;;;;16.40;13.73;;;;;;;;;;5013424;28;20762;-72
2022/01/08 09:17:21;;;;;;;15.87;12.40;;;;;;;;;;5013452;28;20224;-72
2022/01/08 09:19:49;;;;;;;18.33;13.10;;;;;;;;;;5029833;28;20242;-72
2022/01/08 09:22:15;;;;;;;16.80;12.10;;;;;;;;;;4996132;28;20743;-71
2022/01/08 09:24:43;;;;;;;15.23;12.73;;;;;;;;;;4989032;28;20266;-71
2022/01/08 09:27:09;;;;;;;21.03;13.03;;;;;;;;;;5020100;28;20330;-72
2022/01/08 09:29:34;;;;;;;17.77;13.43;;;;;;;;;;4993957;28;20422;-71
2022/01/08 09:32:08;;;;;;;18.73;12.67;;;;;;;;;;4987455;28;20232;-72
2022/01/08 09:34:34;;;;;;;15.87;12.77;;;;;;;;;;5013405;28;20226;-72
2022/01/08 09:37:03;;;;;;;15.97;12.43;;;;;;;;;;5028592;28;20216;-74
2022/01/08 09:39:29;;;;;;;15.80;12.50;;;;;;;;;;5017950;28;20216;-79
2022/01/08 09:41:59;;;;;;;16.43;12.33;;;;;;;;;;5009655;28;20251;-81
2022/01/08 09:44:25;;;;;;;15.30;11.93;;;;;;;;;;5039611;28;20227;-72
2022/01/08 09:46:55;;;;;;;15.17;10.70;;;;;;;;;;5038567;28;20220;-74
2022/01/08 09:49:25;;;;;;;20.23;17.60;;;;;;;;;;5012132;28;20784;-71
2022/01/08 09:51:58;;;;;;;14.27;12.77;;;;;;;;;;5020169;28;20219;-70
2022/01/08 09:54:27;;;;;;;16.47;13.07;;;;;;;;;;5029892;28;20235;-72
2022/01/08 09:56:55;;;;;;;20.20;13.10;;;;;;;;;;5034074;28;20306;-71
2022/01/08 09:59:24;;;;;;;15.03;12.00;;;;;;;;;;5050833;28;20219;-72
2022/01/08 10:01:58;;;;;;;15.00;13.00;;;;;;;;;;5049031;28;20223;-71
2022/01/08 10:04:31;;;;;;;15.97;12.20;;;;;;;;;;5003084;28;20227;-70
2022/01/08 10:07:24;;;;;;;17.43;13.70;;;;;;;;;;5054783;28;20230;-71
2022/01/08 10:10:00;;;;;;;16.53;13.17;;;;;;;;;;5053290;28;20692;-71
2022/01/08 10:12:54;;;;;;;18.53;13.63;;;;;;;;;;5052194;28;20330;-71
2022/01/08 10:18:26;;;;;;;19.83;12.80;;;;;;;;;;5037810;28;21693;-71
2022/01/08 10:20:55;;;;;;;18.10;14.20;;;;;;;;;;5035729;28;20223;-71
2022/01/08 10:23:32;;;;;;;19.80;15.10;;;;;;;;;;5055290;28;20728;-70
2022/01/08 10:26:05;;;;;;;17.53;13.33;;;;;;;;;;5038222;28;20227;-71
2022/01/08 10:28:34;;;;;;;19.40;13.67;;;;;;;;;;5041644;28;20290;-71
2022/01/08 10:31:18;;;;;;;21.37;15.03;;;;;;;;;;5043262;28;20647;-71
2022/01/08 10:33:48;;;;;;;18.00;13.13;;;;;;;;;;5060454;28;20301;-71
2022/01/08 10:36:16;;;;;;;18.40;14.07;;;;;;;;;;5053914;28;20235;-72
2022/01/08 10:38:46;;;;;;;21.63;14.53;;;;;;;;;;5038700;28;20299;-72
2022/01/08 10:41:14;;;;;;;19.63;13.77;;;;;;;;;;5020365;28;20227;-70
2022/01/08 10:43:44;;;;;;;16.93;13.90;;;;;;;;;;5052595;28;20235;-70
2022/01/08 10:46:19;;;;;;;16.57;13.17;;;;;;;;;;5021258;28;20236;-71
2022/01/08 10:48:51;;;;;;;20.23;13.70;;;;;;;;;;5053510;28;20220;-72
2022/01/08 10:51:26;;;;;;;19.57;14.33;;;;;;;;;;5034529;28;20600;-72
2022/01/08 10:54:11;;;;;;;17.13;13.60;;;;;;;;;;5044390;28;20235;-72
2022/01/08 10:56:36;;;;;;;17.07;13.13;;;;;;;;;;5047445;28;20907;-71
2022/01/08 10:59:14;;;;;;;17.97;13.73;;;;;;;;;;5060394;28;20230;-73
2022/01/08 11:02:03;;;;;;;18.63;13.80;;;;;;;;;;5052085;28;20739;-71
2022/01/08 11:04:36;;;;;;;28.87;19.20;;;;;;;;;;5032161;28;20212;-71
2022/01/08 11:07:06;;;;;;;18.87;15.27;;;;;;;;;;5016416;28;20224;-71
2022/01/08 11:09:32;;;;;;;20.10;14.83;;;;;;;;;;5018874;28;20223;-71
2022/01/08 11:12:00;;;;;;;15.50;13.77;;;;;;;;;;5034703;28;20219;-70
2022/01/08 11:15:01;;;;;;;17.77;13.37;;;;;;;;;;5034861;28;20229;-71
2022/01/08 11:17:41;;;;;;;18.00;14.13;;;;;;;;;;5053257;28;20210;-70
2022/01/08 11:20:18;;;;;;;16.20;13.57;;;;;;;;;;5019753;28;20628;-71
2022/01/08 11:22:47;;;;;;;18.37;13.77;;;;;;;;;;5034917;28;20226;-71
2022/01/08 11:25:24;;;;;;;19.87;14.20;;;;;;;;;;5035266;28;20223;-71
2022/01/08 11:28:19;;;;;;;16.53;14.33;;;;;;;;;;5019216;28;20211;-71
2022/01/08 11:30:50;;;;;;;16.47;13.33;;;;;;;;;;5048286;28;20641;-71
2022/01/08 11:33:27;;;;;;;19.87;14.47;;;;;;;;;;5034539;28;20262;-71
2022/01/08 11:35:56;;;;;;;18.53;13.47;;;;;;;;;;5036219;28;20215;-71
2022/01/08 11:38:26;;;;;;;16.40;13.03;;;;;;;;;;5034445;28;20220;-71
2022/01/08 11:40:55;;;;;;;18.23;13.73;;;;;;;;;;5003047;28;20709;-72
2022/01/08 11:43:23;;;;;;;19.73;13.90;;;;;;;;;;5034422;28;20212;-70
2022/01/08 11:45:55;;;;;;;14.70;12.03;;;;;;;;;;5051368;28;20635;-71
2022/01/08 11:48:33;;;;;;;14.50;11.53;;;;;;;;;;5034242;28;20219;-71
2022/01/08 11:51:01;;;;;;;17.23;11.67;;;;;;;;;;5047005;28;20338;-71
2022/01/08 11:53:29;;;;;;;19.67;12.57;;;;;;;;;;5031728;28;20661;-71
2022/01/08 11:56:01;;;;;;;16.43;11.73;;;;;;;;;;5014480;28;20213;-71
2022/01/08 11:58:28;;;;;;;21.07;14.10;;;;;;;;;;5031261;28;20226;-71
2022/01/08 12:01:03;;;;;;;16.53;11.93;;;;;;;;;;5044284;28;20236;-75
2022/01/08 12:03:39;;;;;;;21.77;11.80;;;;;;;;;;5040754;28;20247;-71
2022/01/08 12:06:20;;;;;;;14.23;11.63;;;;;;;;;;5049274;28;20223;-70
2022/01/08 12:09:16;;;;;;;14.33;11.43;;;;;;;;;;5050567;28;20693;-70
2022/01/08 12:11:47;;;;;;;14.43;11.43;;;;;;;;;;5044528;28;20223;-70
2022/01/08 12:14:17;;;;;;;17.23;11.73;;;;;;;;;;5044931;28;20232;-71
2022/01/08 12:16:52;;;;;;;15.10;10.80;;;;;;;;;;5032924;28;20251;-70
2022/01/08 12:19:37;;;;;;;20.27;12.20;;;;;;;;;;5025792;28;20650;-70
2022/01/08 12:22:20;;;;;;;17.33;12.60;;;;;;;;;;5034752;28;20231;-71
2022/01/08 12:24:53;;;;;;;19.23;13.93;;;;;;;;;;5042956;28;20610;-71
2022/01/08 12:27:39;;;;;;;16.17;12.20;;;;;;;;;;5049319;28;20215;-71
2022/01/08 12:30:37;;;;;;;17.70;11.40;;;;;;;;;;5044001;28;20285;-71
2022/01/08 12:33:18;;;;;;;15.10;11.27;;;;;;;;;;5048943;28;20228;-72
2022/01/08 12:35:46;;;;;;;15.93;10.77;;;;;;;;;;5041436;28;20570;-72
2022/01/08 12:38:26;;;;;;;15.27;10.73;;;;;;;;;;5012888;28;20235;-72
2022/01/08 12:40:55;;;;;;;17.60;10.10;;;;;;;;;;5008540;28;20766;-72
2022/01/08 12:43:29;;;;;;;14.57;9.50;;;;;;;;;;5013393;28;20290;-72
2022/01/08 12:46:13;;;;;;;14.07;10.20;;;;;;;;;;5031653;28;20239;-73
2022/01/08 12:48:39;;;;;;;14.90;10.07;;;;;;;;;;5011228;28;20237;-72
2022/01/08 12:51:07;;;;;;;14.43;10.27;;;;;;;;;;5009152;28;20731;-73
2022/01/08 12:53:36;;;;;;;16.00;9.17;;;;;;;;;;4992482;28;20312;-72
2022/01/08 12:56:02;;;;;;;13.00;9.43;;;;;;;;;;4991732;28;20286;-73
2022/01/08 12:58:42;;;;;;;11.63;8.93;;;;;;;;;;5009747;28;20228;-71
2022/01/08 13:01:09;;;;;;;16.10;9.60;;;;;;;;;;5029652;28;20228;-72
2022/01/08 13:03:35;;;;;;;13.60;8.90;;;;;;;;;;5013042;28;20227;-72
2022/01/08 13:06:13;;;;;;;15.13;9.87;;;;;;;;;;5031305;28;20228;-72
2022/01/08 13:08:43;;;;;;;12.17;9.37;;;;;;;;;;5029939;28;20215;-72
2022/01/08 13:11:14;;;;;;;13.60;10.43;;;;;;;;;;5013664;28;20240;-71
2022/01/08 13:13:50;;;;;;;13.30;9.70;;;;;;;;;;5013663;28;20713;-71
2022/01/08 13:16:20;;;;;;;16.00;9.83;;;;;;;;;;5013376;28;20231;-70
2022/01/08 13:19:00;;;;;;;15.57;10.00;;;;;;;;;;5013332;28;20223;-71
2022/01/08 13:21:38;;;;;;;15.33;10.00;;;;;;;;;;5028831;28;20224;-71
2022/01/08 13:24:16;;;;;;;14.57;9.27;;;;;;;;;;5029580;28;20235;-71
2022/01/08 13:26:48;;;;;;;16.27;9.57;;;;;;;;;;4993832;28;20224;-71
2022/01/08 13:29:24;;;;;;;14.33;9.60;;;;;;;;;;5026436;28;20225;-71
2022/01/08 13:32:00;;;;;;;15.80;9.80;;;;;;;;;;5029407;28;20223;-72
2022/01/08 13:34:30;;;;;;;11.07;9.00;;;;;;;;;;4998138;28;20227;-70
2022/01/08 13:37:04;;;;;;;15.60;10.40;;;;;;;;;;4997619;28;20223;-71
2022/01/08 13:39:33;;;;;;;18.50;11.17;;;;;;;;;;5035333;28;20731;-71
2022/01/08 13:42:10;;;;;;;13.70;8.90;;;;;;;;;;5017344;28;20311;-71
2022/01/08 13:44:39;;;;;;;12.70;9.20;;;;;;;;;;5033541;28;20223;-72
2022/01/08 13:47:31;;;;;;;14.20;8.70;;;;;;;;;;5033369;28;20224;-72
2022/01/08 13:50:03;;;;;;;14.47;9.13;;;;;;;;;;5033643;28;20713;-71
2022/01/08 13:52:35;;;;;;;14.53;9.23;;;;;;;;;;5032577;28;20220;-72
2022/01/08 13:55:24;;;;;;;14.37;9.00;;;;;;;;;;5033499;28;20590;-72
2022/01/08 13:58:34;;;;;;;14.73;10.80;;;;;;;;;;5033640;28;20220;-73
2022/01/08 14:01:07;;;;;;;13.07;9.43;;;;;;;;;;5008618;28;20232;-74
2022/01/08 14:03:35;;;;;;;16.27;9.40;;;;;;;;;;5020870;28;20294;-74
2022/01/08 14:06:04;;;;;;;17.40;10.00;;;;;;;;;;5053546;28;20326;-74
2022/01/08 14:08:33;;;;;;;12.43;9.80;;;;;;;;;;5052226;28;20220;-73
2022/01/08 14:11:05;;;;;;;18.77;10.27;;;;;;;;;;5013294;28;20307;-74
2022/01/08 14:13:46;;;;;;;17.93;10.43;;;;;;;;;;5017655;28;20231;-73
2022/01/08 14:16:17;;;;;;;14.57;9.93;;;;;;;;;;5017127;28;20311;-74
2022/01/08 14:18:43;;;;;;;19.53;11.10;;;;;;;;;;5037288;28;20300;-74
2022/01/08 14:21:15;;;;;;;16.07;11.60;;;;;;;;;;5017237;28;20608;-73
2022/01/08 14:23:40;;;;;;;19.70;10.97;;;;;;;;;;5015614;28;20231;-73
2022/01/08 14:26:14;;;;;;;17.40;11.30;;;;;;;;;;5002901;28;20220;-71
2022/01/08 14:28:40;;;;;;;18.87;11.73;;;;;;;;;;5017211;28;20224;-72
2022/01/08 14:31:22;;;;;;;19.10;12.73;;;;;;;;;;5031557;28;20216;-73
2022/01/08 14:34:01;;;;;;;16.23;11.67;;;;;;;;;;5035811;28;20250;-73
2022/01/08 14:36:38;;;;;;;19.37;11.77;;;;;;;;;;5016889;28;20705;-71
2022/01/08 14:39:04;;;;;;;21.20;12.43;;;;;;;;;;4994493;28;20601;-72
2022/01/08 14:41:34;;;;;;;19.07;11.73;;;;;;;;;;5026077;28;20235;-71
2022/01/08 14:44:03;;;;;;;16.13;10.60;;;;;;;;;;5012098;28;20593;-73
2022/01/08 14:46:32;;;;;;;15.97;11.47;;;;;;;;;;5014329;28;20277;-72
2022/01/08 14:49:02;;;;;;;15.97;10.97;;;;;;;;;;5017561;28;20601;-73
2022/01/08 14:51:32;;;;;;;17.70;12.73;;;;;;;;;;5044923;28;20285;-71
2022/01/08 14:54:05;;;;;;;17.97;12.73;;;;;;;;;;5017351;28;20228;-71
2022/01/08 14:56:31;;;;;;;17.17;12.23;;;;;;;;;;5047164;28;20285;-71
2022/01/08 14:58:56;;;;;;;18.80;13.87;;;;;;;;;;5053066;28;20708;-69
2022/01/08 15:01:25;;;;;;;18.70;13.07;;;;;;;;;;5029135;28;20782;-72